createdAt,value
2019-03-31T00:01:50.726Z,15.73
2019-03-31T00:04:22.954Z,16.50
2019-03-31T00:06:55.516Z,14.10
2019-03-31T00:09:26.355Z,16.27
2019-03-31T00:11:57.294Z,14.43
2019-03-31T00:14:28.149Z,15.43
2019-03-31T00:16:59.027Z,16.60
2019-03-31T00:19:29.884Z,14.10
2019-03-31T00:22:00.828Z,14.77
2019-03-31T00:24:31.804Z,14.97
2019-03-31T00:27:02.756Z,14.70
2019-03-31T00:29:33.605Z,15.60
2019-03-31T00:32:04.558Z,15.53
2019-03-31T00:34:35.413Z,19.00
2019-03-31T00:37:07.743Z,16.50
2019-03-31T00:39:39.354Z,14.17
2019-03-31T00:42:10.253Z,16.07
2019-03-31T00:44:41.335Z,16.20
2019-03-31T00:47:12.238Z,13.17
2019-03-31T00:49:43.077Z,15.70
2019-03-31T00:52:13.972Z,16.80
2019-03-31T00:54:44.803Z,15.57
2019-03-31T00:57:15.689Z,16.90
2019-03-31T00:59:46.524Z,15.97
2019-03-31T01:02:21.888Z,16.97
2019-03-31T01:04:52.820Z,16.73
2019-03-31T01:07:26.375Z,16.60
2019-03-31T01:09:58.695Z,15.37
2019-03-31T01:12:29.872Z,16.23
2019-03-31T01:15:01.296Z,16.20
2019-03-31T01:17:32.176Z,15.63
2019-03-31T01:20:03.610Z,18.13
2019-03-31T01:22:34.501Z,16.87
2019-03-31T01:25:06.229Z,16.80
2019-03-31T01:27:37.221Z,18.27
2019-03-31T01:30:10.011Z,17.53
2019-03-31T01:32:43.403Z,18.73
2019-03-31T01:35:14.755Z,17.40
2019-03-31T01:37:45.792Z,18.00
2019-03-31T01:40:16.947Z,20.30
2019-03-31T01:42:47.827Z,17.77
2019-03-31T01:45:18.766Z,13.10
2019-03-31T01:47:49.617Z,12.90
2019-03-31T01:50:21.249Z,14.87
2019-03-31T01:52:52.102Z,13.40
2019-03-31T01:55:22.938Z,12.13
2019-03-31T01:57:53.883Z,15.90
2019-03-31T02:00:33.261Z,13.97
2019-03-31T02:03:04.384Z,14.13
2019-03-31T02:05:35.226Z,13.87
2019-03-31T02:08:06.552Z,13.70
2019-03-31T02:10:37.517Z,16.23
2019-03-31T02:13:08.404Z,12.80
2019-03-31T02:15:39.596Z,13.30
2019-03-31T02:18:10.445Z,12.30
2019-03-31T02:20:41.457Z,11.73
2019-03-31T02:23:12.389Z,12.43
2019-03-31T02:25:43.229Z,13.27
2019-03-31T02:28:14.189Z,13.40
2019-03-31T02:30:45.104Z,12.17
2019-03-31T02:33:15.942Z,15.03
2019-03-31T02:35:46.848Z,13.50
2019-03-31T02:38:17.731Z,15.03
2019-03-31T02:40:48.529Z,16.47
2019-03-31T02:43:19.439Z,16.17
2019-03-31T02:45:50.407Z,16.73
2019-03-31T02:48:21.247Z,18.07
2019-03-31T02:50:53.372Z,17.27
2019-03-31T02:53:24.218Z,16.77
2019-03-31T02:55:56.460Z,17.47
2019-03-31T02:58:28.443Z,15.63
2019-03-31T03:01:00.219Z,14.03
2019-03-31T03:03:32.755Z,13.70
2019-03-31T03:06:05.288Z,14.97
2019-03-31T03:08:38.701Z,15.93
2019-03-31T03:11:10.850Z,12.53
2019-03-31T03:13:43.590Z,12.27
2019-03-31T03:16:18.915Z,15.43
2019-03-31T03:18:49.951Z,16.23
2019-03-31T03:21:24.033Z,17.40
2019-03-31T03:23:54.035Z,16.83
2019-03-31T03:26:25.068Z,19.70
2019-03-31T03:28:55.932Z,16.73
2019-03-31T03:31:26.872Z,15.27
2019-03-31T03:33:57.722Z,15.70
2019-03-31T03:36:28.542Z,16.53
2019-03-31T03:38:59.434Z,16.67
2019-03-31T03:41:30.339Z,17.20
2019-03-31T03:44:02.471Z,19.00
2019-03-31T03:46:33.921Z,16.47
2019-03-31T03:49:05.048Z,18.17
2019-03-31T03:51:36.014Z,19.77
2019-03-31T03:54:06.921Z,16.60
2019-03-31T03:56:37.851Z,19.13
2019-03-31T03:59:08.667Z,14.90
2019-03-31T04:01:39.635Z,15.13
2019-03-31T04:04:10.481Z,14.80
2019-03-31T04:06:41.546Z,15.30
2019-03-31T04:09:12.390Z,14.23
2019-03-31T04:11:43.419Z,14.50
2019-03-31T04:14:14.324Z,16.60
2019-03-31T04:16:45.202Z,14.37
2019-03-31T04:19:16.042Z,17.57
2019-03-31T04:21:46.929Z,17.03
2019-03-31T04:24:17.769Z,19.20
2019-03-31T04:26:48.655Z,17.80
2019-03-31T04:29:19.494Z,15.90
2019-03-31T04:31:50.403Z,15.50
2019-03-31T04:34:22.597Z,15.67
2019-03-31T04:36:53.457Z,13.53
2019-03-31T04:39:24.337Z,17.30
2019-03-31T04:41:55.186Z,16.17
2019-03-31T04:44:26.025Z,17.50
2019-03-31T04:46:56.990Z,16.60
2019-03-31T04:49:27.841Z,17.20
2019-03-31T04:51:58.690Z,15.97
2019-03-31T04:54:29.530Z,17.03
2019-03-31T04:57:00.406Z,17.33
2019-03-31T04:59:31.254Z,21.70
2019-03-31T05:02:02.394Z,20.40
2019-03-31T05:04:33.333Z,20.10
2019-03-31T05:07:04.193Z,25.30
2019-03-31T05:09:35.048Z,23.97
2019-03-31T05:12:05.899Z,19.53
2019-03-31T05:14:36.810Z,17.50
2019-03-31T05:17:07.830Z,16.77
2019-03-31T05:19:38.959Z,17.17
2019-03-31T05:22:09.810Z,17.90
2019-03-31T05:24:40.698Z,19.13
2019-03-31T05:27:11.529Z,16.17
2019-03-31T05:29:42.458Z,20.20
2019-03-31T05:32:13.329Z,18.93
2019-03-31T05:34:44.361Z,19.90
2019-03-31T05:37:15.242Z,22.17
2019-03-31T05:39:46.087Z,21.03
2019-03-31T05:42:16.971Z,25.17
2019-03-31T05:44:47.825Z,31.17
2019-03-31T05:47:18.817Z,28.07
2019-03-31T05:49:49.752Z,37.53
2019-03-31T05:52:20.791Z,43.00
2019-03-31T05:54:51.628Z,37.90
2019-03-31T05:57:22.556Z,43.60
2019-03-31T05:59:53.398Z,40.87
2019-03-31T06:02:24.402Z,41.53
2019-03-31T06:04:55.249Z,43.33
2019-03-31T06:07:26.188Z,44.40
2019-03-31T06:09:56.993Z,44.17
2019-03-31T06:12:27.874Z,51.03
2019-03-31T06:14:58.785Z,44.07
2019-03-31T06:17:29.661Z,43.73
2019-03-31T06:20:00.522Z,45.23
2019-03-31T06:22:31.409Z,46.83
2019-03-31T06:25:02.263Z,43.83
2019-03-31T06:27:33.129Z,42.73
2019-03-31T06:30:04.489Z,46.30
2019-03-31T06:32:35.384Z,51.00
2019-03-31T06:35:07.025Z,52.20
2019-03-31T06:37:38.473Z,49.07
2019-03-31T06:40:10.909Z,52.90
2019-03-31T06:42:42.137Z,54.83
2019-03-31T06:45:13.061Z,51.73
2019-03-31T06:47:43.941Z,50.73
2019-03-31T06:50:14.790Z,53.90
2019-03-31T06:52:45.629Z,50.20
2019-03-31T06:55:16.542Z,54.23
2019-03-31T06:57:47.388Z,46.67
2019-03-31T07:00:18.532Z,42.83
2019-03-31T07:02:49.398Z,45.53
2019-03-31T07:05:20.341Z,46.60
2019-03-31T07:07:51.194Z,52.20
2019-03-31T07:10:22.071Z,49.93
2019-03-31T07:12:52.935Z,53.60
2019-03-31T07:15:23.814Z,48.87
2019-03-31T07:17:54.685Z,49.43
2019-03-31T07:20:25.649Z,53.07
2019-03-31T07:22:56.490Z,49.43
2019-03-31T07:25:27.368Z,49.73
2019-03-31T07:27:58.243Z,51.90
2019-03-31T07:30:29.219Z,50.07
2019-03-31T07:33:00.089Z,48.77
2019-03-31T07:35:31.042Z,46.87
2019-03-31T07:38:01.901Z,46.00
2019-03-31T07:40:32.841Z,42.30
2019-03-31T07:43:03.757Z,47.20
2019-03-31T07:45:34.643Z,47.47
2019-03-31T07:48:08.122Z,52.03
2019-03-31T07:50:40.638Z,58.30
2019-03-31T07:53:11.525Z,57.67
2019-03-31T07:55:42.379Z,59.60
2019-03-31T07:58:13.446Z,61.93
2019-03-31T08:00:44.778Z,63.97
2019-03-31T08:03:15.727Z,63.57
2019-03-31T08:05:46.660Z,61.67
2019-03-31T08:08:17.540Z,62.80
2019-03-31T08:10:48.409Z,71.03
2019-03-31T08:13:19.333Z,66.10
2019-03-31T08:15:50.366Z,66.77
2019-03-31T08:18:21.225Z,66.50
2019-03-31T08:20:52.062Z,69.53
2019-03-31T08:23:22.935Z,63.37
2019-03-31T08:25:53.795Z,75.07
2019-03-31T08:28:25.790Z,67.70
2019-03-31T08:30:56.820Z,75.43
2019-03-31T08:33:27.687Z,71.80
2019-03-31T08:36:00.292Z,68.47
2019-03-31T08:39:55.178Z,70.73
2019-03-31T08:42:26.099Z,70.33
2019-03-31T08:44:56.994Z,71.90
2019-03-31T08:47:29.012Z,70.37
2019-03-31T08:50:02.121Z,72.37
2019-03-31T08:52:33.693Z,68.07
2019-03-31T08:55:04.776Z,70.33
2019-03-31T08:57:35.716Z,70.90
2019-03-31T09:00:09.345Z,70.87
2019-03-31T09:02:40.681Z,66.13
2019-03-31T09:05:12.102Z,70.47
2019-03-31T09:07:42.993Z,60.97
2019-03-31T09:10:14.076Z,57.37
2019-03-31T09:12:48.321Z,62.00
2019-03-31T09:15:17.636Z,59.73
2019-03-31T09:17:49.789Z,59.90
2019-03-31T09:20:20.642Z,60.33
2019-03-31T09:22:51.618Z,59.10
2019-03-31T09:25:22.482Z,63.30
2019-03-31T09:27:53.328Z,63.50
2019-03-31T09:30:26.148Z,60.23
2019-03-31T09:33:09.172Z,61.60
2019-03-31T09:35:40.779Z,62.63
2019-03-31T09:38:11.721Z,68.07
2019-03-31T09:40:42.597Z,59.80
2019-03-31T09:43:13.549Z,68.10
2019-03-31T09:45:44.417Z,63.10
2019-03-31T09:48:15.325Z,67.17
2019-03-31T09:50:46.180Z,65.27
2019-03-31T09:53:19.061Z,61.87
2019-03-31T09:55:49.904Z,63.60
2019-03-31T09:58:21.002Z,57.90
2019-03-31T10:00:54.387Z,67.07
2019-03-31T10:03:25.561Z,62.30
2019-03-31T10:06:09.876Z,61.17
2019-03-31T10:08:30.421Z,58.47
2019-03-31T10:11:03.035Z,61.97
2019-03-31T10:13:34.209Z,54.73
2019-03-31T10:16:05.112Z,54.50
2019-03-31T10:18:36.074Z,53.23
2019-03-31T10:21:12.775Z,50.03
2019-03-31T10:23:43.908Z,55.80
2019-03-31T10:26:17.669Z,47.27
2019-03-31T10:28:48.788Z,45.13
2019-03-31T10:31:21.181Z,50.60
2019-03-31T10:33:51.958Z,47.57
2019-03-31T10:36:22.813Z,45.00
2019-03-31T10:38:53.679Z,51.03
2019-03-31T10:41:24.667Z,49.60
2019-03-31T10:43:55.516Z,45.87
2019-03-31T10:46:26.569Z,47.30
2019-03-31T10:48:57.460Z,47.73
2019-03-31T10:51:28.311Z,48.57
2019-03-31T10:54:04.425Z,48.17
2019-03-31T10:56:34.896Z,45.93
2019-03-31T10:59:11.478Z,40.27
2019-03-31T11:01:42.736Z,40.17
2019-03-31T11:04:15.730Z,44.17
2019-03-31T11:06:58.216Z,35.53
2019-03-31T11:09:19.543Z,40.10
2019-03-31T11:11:50.424Z,36.63
2019-03-31T11:14:21.297Z,38.83
2019-03-31T11:16:53.347Z,34.63
2019-03-31T11:19:24.946Z,33.63
2019-03-31T11:22:04.732Z,30.03
2019-03-31T11:24:53.158Z,31.50
2019-03-31T11:27:43.890Z,27.00
2019-03-31T11:30:14.606Z,27.73
2019-03-31T11:32:46.003Z,25.97
2019-03-31T11:35:16.890Z,28.83
2019-03-31T11:37:47.750Z,25.73
2019-03-31T11:40:19.065Z,23.93
2019-03-31T11:42:53.178Z,22.87
2019-03-31T11:45:25.096Z,23.87
2019-03-31T11:47:56.738Z,22.43
2019-03-31T11:50:35.393Z,22.70
2019-03-31T11:53:09.979Z,21.60
2019-03-31T11:55:45.445Z,20.57
2019-03-31T11:58:16.834Z,22.07
2019-03-31T12:00:55.455Z,23.97
2019-03-31T12:03:26.822Z,22.83
2019-03-31T12:05:57.713Z,21.60
2019-03-31T12:08:30.358Z,17.77
2019-03-31T12:11:02.514Z,22.37
2019-03-31T12:13:33.337Z,21.87
2019-03-31T12:16:06.640Z,19.10
2019-03-31T12:18:42.348Z,19.73
2019-03-31T12:21:14.397Z,23.20
2019-03-31T12:23:46.234Z,19.77
2019-03-31T12:26:18.854Z,22.80
2019-03-31T12:28:50.720Z,21.13
2019-03-31T12:31:22.475Z,18.83
2019-03-31T12:33:57.901Z,21.40
2019-03-31T12:36:29.756Z,19.43
2019-03-31T12:39:02.237Z,20.00
2019-03-31T12:41:33.395Z,20.30
2019-03-31T12:44:03.990Z,18.67
2019-03-31T12:46:34.854Z,19.20
2019-03-31T12:49:05.910Z,20.30
2019-03-31T12:51:36.903Z,24.47
2019-03-31T12:54:10.480Z,22.00
2019-03-31T12:56:44.048Z,21.60
2019-03-31T12:59:16.789Z,20.97
2019-03-31T13:01:48.767Z,21.33
2019-03-31T13:04:20.328Z,23.13
2019-03-31T13:06:54.064Z,19.63
2019-03-31T13:09:25.173Z,19.37
2019-03-31T13:11:56.037Z,19.33
2019-03-31T13:14:27.791Z,20.70
2019-03-31T13:17:01.524Z,21.33
2019-03-31T13:19:32.333Z,19.93
2019-03-31T13:22:03.270Z,25.37
2019-03-31T13:24:34.612Z,22.63
2019-03-31T13:27:06.573Z,22.90
2019-03-31T13:29:38.500Z,21.40
2019-03-31T13:32:09.613Z,22.37
2019-03-31T13:34:41.572Z,18.70
2019-03-31T13:37:12.446Z,20.70
2019-03-31T13:39:43.747Z,22.73
2019-03-31T13:42:14.670Z,20.43
2019-03-31T13:44:47.836Z,20.47
2019-03-31T13:47:18.865Z,22.80
2019-03-31T13:49:49.866Z,18.80
2019-03-31T13:52:20.876Z,19.83
2019-03-31T13:54:52.074Z,16.70
2019-03-31T13:57:23.334Z,21.23
2019-03-31T13:59:54.777Z,16.33
2019-03-31T14:02:25.652Z,18.30
2019-03-31T14:04:56.499Z,17.13
2019-03-31T14:07:27.369Z,15.47
2019-03-31T14:09:58.226Z,19.50
2019-03-31T14:12:29.106Z,15.67
2019-03-31T14:15:00.014Z,19.63
2019-03-31T14:17:30.913Z,14.20
2019-03-31T14:20:02.090Z,18.23
2019-03-31T14:22:33.170Z,17.03
2019-03-31T14:25:04.118Z,15.77
2019-03-31T14:27:35.228Z,14.67
2019-03-31T14:30:07.014Z,15.13
2019-03-31T14:32:38.058Z,13.90
2019-03-31T14:35:10.870Z,13.47
2019-03-31T14:37:42.261Z,14.33
2019-03-31T14:40:13.190Z,13.00
2019-03-31T14:42:44.045Z,12.80
2019-03-31T14:45:29.114Z,11.87
2019-03-31T14:48:00.356Z,13.83
2019-03-31T14:50:39.041Z,13.47
2019-03-31T14:53:10.194Z,13.90
2019-03-31T14:55:41.496Z,11.70
2019-03-31T14:58:12.438Z,11.97
2019-03-31T15:00:43.282Z,12.37
2019-03-31T15:03:14.179Z,13.57
2019-03-31T15:05:45.280Z,12.43
2019-03-31T15:08:16.155Z,12.07
2019-03-31T15:10:47.023Z,10.93
2019-03-31T15:13:17.892Z,10.43
2019-03-31T15:15:48.733Z,11.73
2019-03-31T15:18:19.678Z,10.47
2019-03-31T15:20:50.533Z,10.33
2019-03-31T15:23:29.016Z,11.07
2019-03-31T15:25:53.940Z,10.67
2019-03-31T15:28:24.805Z,11.30
2019-03-31T15:30:55.658Z,10.50
2019-03-31T15:33:26.562Z,9.43
2019-03-31T15:35:57.538Z,11.13
2019-03-31T15:38:28.433Z,11.07
2019-03-31T15:40:59.354Z,10.70
2019-03-31T15:43:30.274Z,8.57
2019-03-31T15:46:01.157Z,10.30
2019-03-31T15:48:32.017Z,8.80
2019-03-31T15:51:02.934Z,10.57
2019-03-31T15:53:33.910Z,8.87
2019-03-31T15:56:04.866Z,10.53
2019-03-31T15:58:35.838Z,7.27
2019-03-31T16:01:07.039Z,6.93
2019-03-31T16:03:38.682Z,9.87
2019-03-31T16:06:09.504Z,7.83
2019-03-31T16:08:39.929Z,7.53
2019-03-31T16:11:10.284Z,8.53
2019-03-31T16:13:40.822Z,10.30
2019-03-31T16:16:14.126Z,30.50
2019-03-31T16:18:43.220Z,22.90
2019-03-31T16:21:15.665Z,16.07
2019-03-31T16:23:46.011Z,10.63
2019-03-31T16:26:16.452Z,9.77
2019-03-31T16:28:46.812Z,32.03
2019-03-31T16:31:17.225Z,10.37
2019-03-31T16:33:47.642Z,9.77
2019-03-31T16:36:19.091Z,8.47
2019-03-31T16:38:49.408Z,12.80
2019-03-31T16:41:19.819Z,21.57
2019-03-31T16:43:50.134Z,15.97
2019-03-31T16:46:20.450Z,15.77
2019-03-31T16:48:50.791Z,9.03
2019-03-31T16:51:21.311Z,7.77
2019-03-31T16:53:52.194Z,7.83
2019-03-31T16:56:25.116Z,7.60
2019-03-31T16:58:55.511Z,7.83
2019-03-31T17:01:25.996Z,7.40
2019-03-31T17:03:57.657Z,9.37
2019-03-31T17:06:27.995Z,5.87
2019-03-31T17:08:58.328Z,7.80
2019-03-31T17:11:28.788Z,5.97
2019-03-31T17:13:59.570Z,7.67
2019-03-31T17:16:30.454Z,7.23
2019-03-31T17:19:01.199Z,8.70
2019-03-31T17:21:32.034Z,7.20
2019-03-31T17:24:02.434Z,6.67
2019-03-31T17:26:32.750Z,6.27
2019-03-31T17:29:03.133Z,7.40
2019-03-31T17:31:35.522Z,5.40
2019-03-31T17:34:06.146Z,7.00
2019-03-31T17:36:36.502Z,6.13
2019-03-31T17:39:08.356Z,6.20
2019-03-31T17:41:40.233Z,8.00
2019-03-31T17:44:12.248Z,9.00
2019-03-31T17:46:42.505Z,7.93
2019-03-31T17:49:12.991Z,4.83
2019-03-31T17:51:45.205Z,5.60
2019-03-31T17:54:15.647Z,5.00
2019-03-31T17:56:46.180Z,8.00
2019-03-31T17:59:16.613Z,5.67
2019-03-31T18:01:46.989Z,5.00
2019-03-31T18:04:17.465Z,7.43
2019-03-31T18:06:47.813Z,5.93
2019-03-31T18:09:19.046Z,9.50
2019-03-31T18:11:49.730Z,7.87
2019-03-31T18:14:20.145Z,6.80
2019-03-31T18:16:50.785Z,8.20
2019-03-31T18:19:21.202Z,7.83
2019-03-31T18:21:51.480Z,5.83
2019-03-31T18:24:21.872Z,7.97
2019-03-31T18:26:52.173Z,7.03
2019-03-31T18:29:22.559Z,7.43
2019-03-31T18:31:54.115Z,7.93
2019-03-31T18:34:25.392Z,6.97
2019-03-31T18:36:56.094Z,8.33
2019-03-31T18:39:26.469Z,6.53
2019-03-31T18:41:56.769Z,6.07
2019-03-31T18:44:27.106Z,5.67
2019-03-31T18:46:57.410Z,4.07
2019-03-31T18:49:27.922Z,6.17
2019-03-31T18:51:58.235Z,5.10
2019-03-31T18:54:38.620Z,7.93
2019-03-31T18:57:38.457Z,7.53
2019-03-31T19:00:18.173Z,9.07
2019-03-31T19:02:55.128Z,11.10
2019-03-31T19:05:43.334Z,7.00
2019-03-31T19:08:36.493Z,7.13
2019-03-31T19:11:28.486Z,7.10
2019-03-31T19:14:16.840Z,7.70
2019-03-31T19:17:09.444Z,7.10
2019-03-31T19:20:01.561Z,4.87
2019-03-31T19:22:50.198Z,4.03
2019-03-31T19:25:38.508Z,7.20
2019-03-31T19:28:26.273Z,7.17
2019-03-31T19:31:15.650Z,7.77
2019-03-31T19:34:13.821Z,6.43
2019-03-31T19:36:50.808Z,8.10
2019-03-31T19:39:44.165Z,11.30
2019-03-31T19:42:36.651Z,9.07
2019-03-31T19:45:35.661Z,5.23
2019-03-31T19:48:24.369Z,5.40
2019-03-31T19:51:02.916Z,5.73
2019-03-31T19:53:52.270Z,6.20
2019-03-31T19:56:45.586Z,8.57
2019-03-31T19:59:38.520Z,8.33
2019-03-31T20:02:19.268Z,5.90
2019-03-31T20:05:23.945Z,7.00
2019-03-31T20:08:31.769Z,9.17
2019-03-31T20:11:21.168Z,6.57
2019-03-31T20:14:07.355Z,5.73
2019-03-31T20:17:02.932Z,6.83
2019-03-31T20:19:45.902Z,7.07
2019-03-31T20:22:22.784Z,6.37
2019-03-31T20:25:15.252Z,5.83
2019-03-31T20:28:04.142Z,5.27
2019-03-31T20:31:05.656Z,7.50
2019-03-31T20:33:45.987Z,6.63
2019-03-31T20:36:23.268Z,5.10
2019-03-31T20:39:12.625Z,12.07
2019-03-31T20:42:04.318Z,10.03
2019-03-31T20:44:34.777Z,7.10
2019-03-31T20:47:05.166Z,6.83
2019-03-31T20:49:36.666Z,7.73
2019-03-31T20:52:07.089Z,11.87
2019-03-31T20:54:37.062Z,6.53
2019-03-31T20:57:07.455Z,6.10
2019-03-31T20:59:39.593Z,8.63
2019-03-31T21:02:11.283Z,4.93
2019-03-31T21:04:41.730Z,8.27
2019-03-31T21:07:12.065Z,10.00
2019-03-31T21:09:45.062Z,8.37
2019-03-31T21:12:14.662Z,5.97
2019-03-31T21:14:45.053Z,6.10
2019-03-31T21:17:15.409Z,10.87
2019-03-31T21:19:45.825Z,6.37
2019-03-31T21:22:16.137Z,7.17
2019-03-31T21:24:46.484Z,10.40
2019-03-31T21:27:16.827Z,9.90
2019-03-31T21:29:47.161Z,9.37
2019-03-31T21:32:17.505Z,5.80
2019-03-31T21:34:47.801Z,6.27
2019-03-31T21:37:18.093Z,10.20
2019-03-31T21:39:48.411Z,6.47
2019-03-31T21:42:18.707Z,6.83
2019-03-31T21:44:49.197Z,7.13
2019-03-31T21:47:19.516Z,8.83
2019-03-31T21:49:49.801Z,11.00
2019-03-31T21:52:20.139Z,11.33
2019-03-31T21:54:50.454Z,6.40
2019-03-31T21:57:20.812Z,9.43
2019-03-31T21:59:51.113Z,6.53
2019-03-31T22:02:21.529Z,8.07
2019-03-31T22:04:51.897Z,9.03
2019-03-31T22:07:22.275Z,7.63
2019-03-31T22:09:52.575Z,6.73
2019-03-31T22:12:22.915Z,10.23
2019-03-31T22:14:53.241Z,8.73
2019-03-31T22:17:23.706Z,11.30
2019-03-31T22:19:54.031Z,11.23
2019-03-31T22:22:24.393Z,5.27
2019-03-31T22:24:54.700Z,5.30
2019-03-31T22:27:25.005Z,4.10
2019-03-31T22:29:55.289Z,8.73
2019-03-31T22:32:25.592Z,5.17
2019-03-31T22:34:55.890Z,5.67
2019-03-31T22:37:26.213Z,5.77
2019-03-31T22:39:56.560Z,7.07
2019-03-31T22:42:27.082Z,6.30
2019-03-31T22:44:57.353Z,4.93
2019-03-31T22:47:27.698Z,6.90
2019-03-31T22:49:58.038Z,6.73
2019-03-31T22:52:28.329Z,4.77
2019-03-31T22:54:58.733Z,7.00
2019-03-31T22:57:29.066Z,5.53
2019-03-31T22:59:59.377Z,6.00
2019-03-31T23:02:29.781Z,3.67
2019-03-31T23:05:00.154Z,7.13
2019-03-31T23:07:30.666Z,7.73
2019-03-31T23:10:01.054Z,9.03
2019-03-31T23:12:31.421Z,7.27
2019-03-31T23:15:01.862Z,7.43
2019-03-31T23:17:32.231Z,7.90
2019-03-31T23:20:02.538Z,8.03
2019-03-31T23:22:32.955Z,9.43
2019-03-31T23:25:03.360Z,3.47
2019-03-31T23:27:33.775Z,6.23
2019-03-31T23:30:06.050Z,8.03
2019-03-31T23:32:36.455Z,6.40
2019-03-31T23:35:07.988Z,6.67
2019-03-31T23:37:38.400Z,7.63
2019-03-31T23:40:09.075Z,5.07
2019-03-31T23:42:39.457Z,3.87
2019-03-31T23:45:12.140Z,7.23
2019-03-31T23:47:42.421Z,3.80
2019-03-31T23:50:12.838Z,6.23
2019-03-31T23:52:43.149Z,6.80
2019-03-31T23:55:13.501Z,6.27
2019-03-31T23:57:43.864Z,3.97
